Pontoise - Cormeilles-en-Vexin Airport

Airport
ICAO code: 
LFPT
IATA Code: 
POX
Summary
ICAO Region: 
EUR
Territory: 
Location: 
, Ile-de-France
Serving: 
Pontoise
Elevation: 
325 ft
Coordinates: 
Aerial View: 
49° 5' 47.929" N, 2° 2' 26.999" E
Metar
Observation
LFPT 302130Z AUTO 22010KT 200V260 9999 OVC015 09/07 Q1012
Station
Pontoise - Cormeilles-en-Vexin
Date/Time
2021-11-30 21:30:00
Wind direction
220°
Wind speed
10 kts
Lowest cloud amount
overcast
Temperature
9°C
Dew point
7°C
Humidity
87%
QNH
1012 hPa
Weather condition
n/a

Runways

Designator Length Width Surface Rops
12/30 1650 50 ASP Yes/Yes
5/23 1689 50 ASP Yes/Yes
Airport map: 
Aerial View: 

SKYbrary Partners:

Safety knowledge contributed by: